Latest Coastal Weather Observations for Darwin

IDD60701

Issued at 9:05 pm CST Tuesday 16 September 2014 (issued every 10 minutes, with the page automatically refreshed every 10 minutes)

About coastal observations | Map of coastal stations | Coastal observations for NT | Marine services | Other Formats
Station Details ID: 014015 Name: DARWIN AIRPORT Lat: -12.42 Lon: 130.89 Height: 30.4 m
Data from the previous 72 hours. | See also: Recent months at Darwin
Date/Time
CST
Temp

°C
Wind Pressure Rain
since 9am
mm
Weather Cloud Vis
km
Sea
Height
m
Swell
Dir
 
Speed
knots
Gust
knots
hPa Trend Height
m
Period
s
Dir
16/09:00pm 25.6 NNE 6 7 1011.6 R 0.0 Fine Clear 30 - - - -
16/08:30pm 26.8 N 5 6 1011.7 - 0.0 - - 10 - - - -
16/08:00pm 27.5 NNE 7 10 1011.0 - 0.0 - - 10 - - - -
16/07:30pm 27.7 NNE 10 14 1010.5 - 0.0 - - 10 - - - -
16/07:00pm 28.4 NNE 11 15 1010.1 - 0.0 - - 10 - - - -
16/06:30pm 28.9 NNE 12 16 1009.9 - 0.0 - - 10 - - - -
16/06:00pm 29.7 NNE 14 17 1009.7 F 0.0 Haze Clear 25 - - - -
16/05:30pm 30.4 NNE 14 18 1009.8 - 0.0 - - 10 - - - -
16/05:00pm 31.0 NNE 14 17 1009.7 - 0.0 - - 10 - - - -
16/04:30pm 31.2 N 15 19 1009.8 - 0.0 - - 10 - - - -
16/04:00pm 32.3 N 16 20 1009.9 - 0.0 - - 10 - - - -
16/03:30pm 32.2 N 17 21 1010.1 - 0.0 - - 10 - - - -
16/03:00pm 32.4 N 14 17 1010.1 S 0.0 Fine Mostly clear 30 - - - -
16/02:30pm 32.9 NW 15 18 1010.8 - 0.0 - Partly cloudy 10 - - - -
16/02:00pm 32.3 NNW 15 18 1011.1 - 0.0 - Partly cloudy 10 - - - -
16/01:30pm 31.1 NNW 15 20 1011.5 - 0.0 - Mostly clear 10 - - - -
16/01:00pm 32.0 N 14 18 1012.0 - 0.0 - Mostly clear 10 - - - -
16/12:30pm 31.3 NNW 14 17 1012.6 - 0.0 - Partly cloudy 10 - - - -
16/12:00pm 31.3 N 10 16 1012.8 S 0.0 Fine Partly cloudy 30 - - - -
16/11:30am 29.6 N 11 15 1013.6 - 0.0 - Partly cloudy 10 - - - -
16/11:00am 29.7 NE 7 13 1013.9 - 0.0 - Partly cloudy 10 - - - -
16/10:30am 30.3 NE 5 9 1014.3 - 0.0 - Partly cloudy 10 - - - -
16/10:00am 29.6 NNE 7 10 1014.4 - 0.0 - Mostly clear 10 - - - -
16/09:30am 28.5 NE 8 11 1014.4 - 0.0 - Mostly clear 10 - - - -
16/09:00am 28.1 N 5 7 1013.9 F 0.0 Fine Mostly clear 25 - - - -
16/08:30am 27.1 NNE 3 6 1013.9 - 0.0 - Mostly clear 10 - - - -
16/08:00am 26.0 NNE 4 5 1013.5 - 0.0 - Mostly clear 10 - - - -
16/07:30am 24.5 N 4 6 1013.1 - 0.0 - Mostly clear 10 - - - -
16/07:00am 22.4 N 3 4 1012.9 - 0.0 - Mostly clear 10 - - - -
16/06:30am 22.0 NNE 4 7 1012.8 - 0.0 - Mostly clear 10 - - - -
16/06:00am 22.2 NE 3 4 1012.2 R 0.0 Fine Partly cloudy 25 - - - -
16/05:30am 22.4 NE 5 6 1012.3 - 0.0 - Mostly clear 10 - - - -
16/05:00am 22.5 E 4 5 1012.0 - 0.0 - Mostly clear 10 - - - -
16/04:30am 22.2 ENE 3 4 1012.0 - 0.0 - Partly cloudy 10 - - - -
16/04:00am 22.4 ENE 1 4 1011.7 - 0.0 - Mostly clear 10 - - - -
16/03:30am 22.2 CALM 0 2 1011.7 - 0.0 - Mostly clear 10 - - - -
16/03:00am 22.6 E 3 4 1011.4 R 0.0 Fine Partly cloudy 30 - - - -
16/02:30am 22.5 ESE 5 6 1011.8 - 0.0 - Mostly clear 10 - - - -
16/02:00am 23.2 S 5 6 1011.9 - 0.0 - Mostly clear 10 - - - -
16/01:30am 23.5 WSW 1 3 1012.1 - 0.0 - Mostly clear 10 - - - -
16/01:00am 24.5 SSW 5 5 1012.2 - 0.0 - Mostly clear 10 - - - -
16/12:30am 24.3 SE 5 6 1012.3 - 0.0 - Mostly clear 10 - - - -
16/12:00am 24.1 ESE 6 6 1012.1 F 0.0 Fine Partly cloudy 30 - - - -
 
Date/Time
CST
Temp

°C
Wind Pressure Rain
since 9am
mm
Weather Cloud Vis
km
Sea
Height
m
Swell
Dir
 
Speed
knots
Gust
knots
hPa Trend Height
m
Period
s
Dir
15/11:30pm 23.4 E 5 6 1012.2 - 0.0 - - 10 - - - -
15/11:00pm 23.6 E 5 6 1012.3 - 0.0 - - 10 - - - -
15/10:30pm 23.7 NNW 1 4 1012.2 - 0.0 - - 10 - - - -
15/10:00pm 24.5 SSW 4 5 1012.1 - 0.0 - - 10 - - - -
15/09:30pm 26.2 S 4 5 1012.0 - 0.0 - - 10 - - - -
15/09:00pm 26.2 WSW 5 6 1011.4 S 0.0 Fine Partly cloudy 30 - - - -
15/08:30pm 26.7 WSW 5 6 1011.5 - 0.0 - - 10 - - - -
15/08:00pm 26.9 W 6 7 1011.2 - 0.0 - - 10 - - - -
15/07:30pm 27.5 NW 5 5 1010.9 - 0.0 - - 10 - - - -
15/07:00pm 28.0 N 5 7 1010.5 - 0.0 - - 10 - - - -
15/06:30pm 28.6 N 9 14 1010.2 - 0.0 - - 10 - - - -
15/06:00pm 29.4 N 10 13 1009.6 F 0.0 Fine Mostly cloudy 30 - - - -
15/05:30pm 29.9 N 10 13 1009.9 - 0.0 - - 10 - - - -
15/05:00pm 30.4 N 10 13 1009.7 - 0.0 - - 10 - - - -
15/04:30pm 30.5 N 12 16 1009.8 - 0.0 - - 10 - - - -
15/04:00pm 30.5 N 13 16 1009.7 - 0.0 - - 10 - - - -
15/03:30pm 30.9 N 13 17 1010.0 - 0.0 - Mostly clear 10 - - - -
15/03:00pm 31.2 N 14 18 1010.0 F 0.0 Smoke Partly cloudy 25 - - - -
15/02:30pm 30.2 NNW 12 16 1010.9 - 0.0 - Mostly clear 10 - - - -
15/02:00pm 29.9 NNW 12 16 1011.4 - 0.0 - Mostly clear 10 - - - -
15/01:30pm 30.6 NW 11 14 1011.9 - 0.0 - Mostly clear 10 - - - -
15/01:00pm 29.5 NW 10 14 1012.5 - 0.0 - Partly cloudy 10 - - - -
15/12:30pm 30.0 WNW 10 14 1012.8 - 0.0 - Mostly clear 10 - - - -
15/12:00pm 29.4 W 7 10 1013.1 R 0.0 Smoke Partly cloudy 25 - - - -
15/11:30am 28.4 WNW 7 10 1013.8 - 0.0 - Partly cloudy 10 - - - -
15/11:00am 29.1 WSW 7 11 1014.2 - 0.0 - Partly cloudy 10 - - - -
15/10:30am 28.0 WSW 7 10 1014.5 - 0.0 - Partly cloudy 10 - - - -
15/10:00am 28.7 WSW 7 9 1014.6 - 0.0 - Mostly clear 10 - - - -
15/09:30am 28.0 NW 4 6 1014.5 - 0.0 - Mostly clear 10 - - - -
15/09:00am 27.4 N 2 6 1014.1 R 0.0 Smoke Mostly clear 20 - - - -
15/08:30am 26.6 NNE 5 6 1014.2 - 0.0 - Mostly clear 10 - - - -
15/08:00am 25.7 NNE 4 6 1013.9 - 0.0 - Mostly clear 10 - - - -
15/07:30am 23.5 N 1 4 1013.5 - 0.0 - Mostly clear 10 - - - -
15/07:00am 21.5 CALM 0 0 1013.1 - 0.0 - - 10 - - - -
15/06:30am 21.7 CALM 0 0 1012.8 - 0.0 - Mostly clear 6 - - - -
15/06:18am 21.6 CALM 0 0 1012.6 - 0.0 - Mostly clear 6 - - - -
15/06:00am 21.6 CALM 0 0 1012.0 R 0.0 Haze Mostly cloudy 20 - - - -
15/05:30am 22.0 CALM 0 0 1012.1 - 0.0 - - 10 - - - -
15/05:00am 22.0 CALM 0 0 1012.1 - 0.0 - - 10 - - - -
15/04:30am 22.5 CALM 0 0 1011.7 - 0.0 - Mostly clear 10 - - - -
15/04:00am 22.5 N 4 4 1011.6 - 0.0 - Mostly clear 10 - - - -
15/03:30am 22.6 NNW 5 6 1011.6 - 0.0 - - 10 - - - -
15/03:00am 23.8 WNW 5 5 1011.2 F 0.0 Haze Mostly cloudy 25 - - - -
15/02:30am 23.9 NW 5 7 1011.8 - 0.0 - Mostly clear 10 - - - -
15/02:00am 25.0 WNW 6 8 1011.9 - 0.0 - - 10 - - - -
15/01:30am 25.2 WNW 7 7 1012.1 - 0.0 - Mostly clear 10 - - - -
15/01:00am 25.4 W 7 9 1012.3 - 0.0 - Mostly clear 10 - - - -
15/12:30am 25.3 W 6 7 1012.5 - 0.0 - Mostly clear 10 - - - -
15/12:00am 25.6 W 7 8 1012.6 R 0.0 Haze Mostly cloudy 25 - - - -
 
Date/Time
CST
Temp

°C
Wind Pressure Rain
since 9am
mm
Weather Cloud Vis
km
Sea
Height
m
Swell
Dir
 
Speed
knots
Gust
knots
hPa Trend Height
m
Period
s
Dir
14/11:30pm 25.7 W 8 10 1012.8 - 0.0 - Mostly clear 10 - - - -
14/11:00pm 25.9 W 9 11 1012.7 - 0.0 - Mostly clear 10 - - - -
14/10:30pm 26.0 W 9 13 1012.6 - 0.0 - Mostly clear 10 - - - -
14/10:00pm 24.6 N 4 6 1012.4 - 0.0 - - 10 - - - -
14/09:30pm 24.1 ENE 4 6 1012.0 - 0.0 - - 10 - - - -
14/09:00pm 25.8 SSE 5 6 1011.3 R 0.0 Fine Mostly cloudy 30 - - - -
14/08:30pm 25.6 E 3 4 1011.2 - 0.0 - - 10 - - - -
14/08:00pm 26.6 NNE 6 8 1010.8 - 0.0 - - 10 - - - -
14/07:30pm 27.0 NE 8 11 1010.5 - 0.0 - - 10 - - - -
14/07:00pm 27.9 NNE 8 10 1010.1 - 0.0 - - 10 - - - -
14/06:30pm 28.8 NNE 11 14 1009.7 - 0.0 - - 10 - - - -
14/06:00pm 30.4 NNE 12 16 1009.2 R 0.0 Smoke Partly cloudy 25 - - - -
14/05:30pm 30.6 NNE 14 19 1009.1 - 0.0 - - 10 - - - -
14/05:00pm 31.6 N 14 18 1009.1 - 0.0 - - 10 - - - -
14/04:30pm 30.5 N 13 17 1009.2 - 0.0 - - 10 - - - -
14/04:00pm 29.9 N 14 17 1009.1 - 0.0 - - 10 - - - -
14/03:30pm 30.9 N 14 16 1009.3 - 0.0 - - 10 - - - -
14/03:00pm 30.6 NNW 14 17 1009.3 F 0.0 Smoke Partly cloudy 25 - - - -
14/02:30pm 30.5 NNW 12 16 1009.9 - 0.0 - - 10 - - - -
14/02:00pm 30.5 NNW 14 17 1010.4 - 0.0 - - 10 - - - -
14/01:30pm 34.2 NNW 13 17 1010.7 - 0.0 - - 10 - - - -
14/01:00pm 34.5 E 14 20 1011.3 - 0.0 - - 10 - - - -
14/12:48pm 33.4 E 16 26 1011.7 - 0.0 - - 10 - - - -
14/12:30pm 33.9 NW 10 15 1012.1 - 0.0 - - 10 - - - -
14/12:00pm 32.9 WNW 7 11 1012.4 F 0.0 Haze Partly cloudy 25 - - - -
14/11:30am 32.4 E 8 21 1013.3 - 0.0 - Mostly clear 10 - - - -
14/11:00am 30.7 SE 8 12 1013.7 - 0.0 - Mostly clear 10 - - - -
14/10:30am 29.6 S 7 11 1014.1 - 0.0 - Mostly clear 10 - - - -
14/10:00am 29.0 ESE 6 9 1014.4 - 0.0 - Mostly clear 10 - - - -
14/09:30am 28.4 SSE 6 9 1014.4 - 0.0 - Mostly clear 10 - - - -
14/09:00am 27.3 SSE 5 8 1014.1 F 0.0 Haze Partly cloudy 25 - - - -
14/08:30am 26.2 E 4 5 1014.4 - 0.0 - Mostly clear 10 - - - -
14/08:00am 25.4 E 3 4 1014.2 - 0.0 - Mostly clear 10 - - - -
14/07:30am 22.5 ESE 4 5 1014.2 - 0.0 - Mostly clear 10 - - - -
14/07:00am 20.9 ENE 2 4 1013.8 - 0.0 Fog patches Mostly cloudy 10 - - - -
14/06:30am 21.6 CALM 0 0 1013.4 - 0.0 Fog patches Mostly cloudy 10 - - - -
14/06:00am 21.8 CALM 0 0 1012.9 R 0.0 Shallow fog Partly cloudy 20 - - - -
14/05:30am 21.7 CALM 0 0 1013.1 - 0.0 - - 10 - - - -
14/05:00am 22.1 NE 4 5 1012.7 - 0.0 - - 10 - - - -
14/04:30am 22.4 NE 3 4 1012.4 - 0.0 - - 10 - - - -
14/04:00am 22.6 N 4 5 1012.2 - 0.0 - - 10 - - - -
14/03:30am 22.8 NE 5 6 1012.2 - 0.0 - Mostly clear 10 - - - -
14/03:00am 22.7 NNE 4 5 1012.0 R 0.0 Haze Partly cloudy 25 - - - -
14/02:30am 22.7 NW 5 7 1012.1 - 0.0 - Mostly clear 10 - - - -
14/02:00am 23.0 NW 6 8 1012.3 - 0.0 - Mostly clear 10 - - - -
14/01:30am 23.0 NNW 5 6 1012.4 - 0.0 - Mostly clear 10 - - - -
14/01:00am 23.0 NNW 5 7 1012.6 - 0.0 - Mostly clear 10 - - - -
14/12:30am 23.1 NNW 5 6 1012.9 - 0.0 - Mostly clear 10 - - - -
14/12:00am 23.2 NW 5 6 1012.8 F 0.0 Fine Partly cloudy 30 - - - -
 
Date/Time
CST
Temp

°C
Wind Pressure Rain
since 9am
mm
Weather Cloud Vis
km
Sea
Height
m
Swell
Dir
 
Speed
knots
Gust
knots
hPa Trend Height
m
Period
s
Dir
13/11:30pm 23.7 NNW 6 7 1013.2 - 0.0 - - 10 - - - -
13/11:00pm 23.9 NNW 5 7 1013.1 - 0.0 - Mostly clear 10 - - - -
13/10:30pm 24.4 N 5 9 1013.2 - 0.0 - - 10 - - - -
13/10:00pm 24.1 ENE 5 5 1013.2 - 0.0 - - 10 - - - -
13/09:30pm 24.6 ENE 7 9 1013.2 - 0.0 - - 10 - - - -

Other Formats:

Comma delimited format used in spreadsheet applications
http://www.bom.gov.au/fwo/IDD60701/IDD60701.94120.axf

JavaScript Object Notation format (JSON) in row-major order
http://www.bom.gov.au/fwo/IDD60701/IDD60701.94120.json